sensor_id;sensor_type;location;lat;lon;timestamp;P1;durP1;ratioP1;P2;durP2;ratioP2
6376;SDS011;3221;48.858;10.128;2023-08-01T00:00:10;4.63;;;3.63;;
6376;SDS011;3221;48.858;10.128;2023-08-01T00:02:38;4.63;;;3.50;;
6376;SDS011;3221;48.858;10.128;2023-08-01T00:05:05;4.70;;;3.40;;
6376;SDS011;3221;48.858;10.128;2023-08-01T00:07:32;6.77;;;3.83;;
6376;SDS011;3221;48.858;10.128;2023-08-01T00:10:03;4.13;;;3.40;;
6376;SDS011;3221;48.858;10.128;2023-08-01T00:12:31;5.23;;;3.60;;
6376;SDS011;3221;48.858;10.128;2023-08-01T00:14:58;5.30;;;3.50;;
6376;SDS011;3221;48.858;10.128;2023-08-01T00:17:25;5.27;;;3.83;;
6376;SDS011;3221;48.858;10.128;2023-08-01T00:19:51;6.03;;;3.80;;
6376;SDS011;3221;48.858;10.128;2023-08-01T00:22:18;5.47;;;3.50;;
6376;SDS011;3221;48.858;10.128;2023-08-01T00:24:45;4.43;;;3.73;;
6376;SDS011;3221;48.858;10.128;2023-08-01T00:27:14;5.07;;;3.30;;
6376;SDS011;3221;48.858;10.128;2023-08-01T00:29:41;5.77;;;3.73;;
6376;SDS011;3221;48.858;10.128;2023-08-01T00:32:08;3.90;;;3.50;;
6376;SDS011;3221;48.858;10.128;2023-08-01T00:34:35;5.40;;;3.60;;
6376;SDS011;3221;48.858;10.128;2023-08-01T00:37:02;5.67;;;3.50;;
6376;SDS011;3221;48.858;10.128;2023-08-01T00:39:29;5.57;;;3.90;;
6376;SDS011;3221;48.858;10.128;2023-08-01T00:41:56;4.60;;;3.40;;
6376;SDS011;3221;48.858;10.128;2023-08-01T00:44:23;5.33;;;3.70;;
6376;SDS011;3221;48.858;10.128;2023-08-01T00:46:50;4.60;;;3.60;;
6376;SDS011;3221;48.858;10.128;2023-08-01T00:49:17;5.53;;;3.60;;
6376;SDS011;3221;48.858;10.128;2023-08-01T00:51:44;4.20;;;3.70;;
6376;SDS011;3221;48.858;10.128;2023-08-01T00:54:11;5.00;;;3.83;;
6376;SDS011;3221;48.858;10.128;2023-08-01T00:56:38;4.03;;;3.40;;
6376;SDS011;3221;48.858;10.128;2023-08-01T00:59:06;4.40;;;3.60;;
6376;SDS011;3221;48.858;10.128;2023-08-01T01:01:34;6.10;;;3.40;;
6376;SDS011;3221;48.858;10.128;2023-08-01T01:04:01;7.57;;;3.93;;
6376;SDS011;3221;48.858;10.128;2023-08-01T01:06:32;6.53;;;3.63;;
6376;SDS011;3221;48.858;10.128;2023-08-01T01:09:15;4.47;;;3.67;;
6376;SDS011;3221;48.858;10.128;2023-08-01T01:11:44;6.17;;;4.20;;
6376;SDS011;3221;48.858;10.128;2023-08-01T01:14:11;4.43;;;3.63;;
6376;SDS011;3221;48.858;10.128;2023-08-01T01:16:38;5.13;;;3.90;;
6376;SDS011;3221;48.858;10.128;2023-08-01T01:19:06;4.40;;;3.70;;
6376;SDS011;3221;48.858;10.128;2023-08-01T01:21:38;6.43;;;3.70;;
6376;SDS011;3221;48.858;10.128;2023-08-01T01:24:08;7.30;;;3.90;;
6376;SDS011;3221;48.858;10.128;2023-08-01T01:26:36;5.83;;;3.90;;
6376;SDS011;3221;48.858;10.128;2023-08-01T01:29:04;6.80;;;3.97;;
6376;SDS011;3221;48.858;10.128;2023-08-01T01:31:35;5.17;;;4.40;;
6376;SDS011;3221;48.858;10.128;2023-08-01T01:34:02;4.10;;;3.50;;
6376;SDS011;3221;48.858;10.128;2023-08-01T01:36:30;4.37;;;3.50;;
6376;SDS011;3221;48.858;10.128;2023-08-01T01:38:57;6.43;;;3.50;;
6376;SDS011;3221;48.858;10.128;2023-08-01T01:41:24;4.67;;;3.93;;
6376;SDS011;3221;48.858;10.128;2023-08-01T01:43:51;4.27;;;3.87;;
6376;SDS011;3221;48.858;10.128;2023-08-01T01:46:18;6.97;;;3.87;;
6376;SDS011;3221;48.858;10.128;2023-08-01T01:48:45;5.93;;;4.10;;
6376;SDS011;3221;48.858;10.128;2023-08-01T01:51:12;6.80;;;4.30;;
6376;SDS011;3221;48.858;10.128;2023-08-01T01:53:39;6.87;;;4.20;;
6376;SDS011;3221;48.858;10.128;2023-08-01T01:56:06;6.50;;;4.23;;
6376;SDS011;3221;48.858;10.128;2023-08-01T01:58:34;4.90;;;3.40;;
6376;SDS011;3221;48.858;10.128;2023-08-01T02:01:00;4.33;;;3.93;;
6376;SDS011;3221;48.858;10.128;2023-08-01T02:03:27;5.37;;;4.20;;
6376;SDS011;3221;48.858;10.128;2023-08-01T02:05:54;4.50;;;3.70;;
6376;SDS011;3221;48.858;10.128;2023-08-01T02:08:21;5.53;;;3.83;;
6376;SDS011;3221;48.858;10.128;2023-08-01T02:10:48;5.37;;;4.00;;
6376;SDS011;3221;48.858;10.128;2023-08-01T02:13:15;5.73;;;3.90;;
6376;SDS011;3221;48.858;10.128;2023-08-01T02:15:42;4.10;;;3.70;;
6376;SDS011;3221;48.858;10.128;2023-08-01T02:18:09;5.07;;;3.70;;
6376;SDS011;3221;48.858;10.128;2023-08-01T02:20:37;4.83;;;3.57;;
6376;SDS011;3221;48.858;10.128;2023-08-01T02:23:04;4.90;;;4.37;;
6376;SDS011;3221;48.858;10.128;2023-08-01T02:25:31;5.70;;;4.00;;
6376;SDS011;3221;48.858;10.128;2023-08-01T02:27:58;4.50;;;3.90;;
6376;SDS011;3221;48.858;10.128;2023-08-01T02:30:25;5.27;;;4.00;;
6376;SDS011;3221;48.858;10.128;2023-08-01T02:32:52;5.40;;;4.00;;
6376;SDS011;3221;48.858;10.128;2023-08-01T02:35:19;6.03;;;3.80;;
6376;SDS011;3221;48.858;10.128;2023-08-01T02:37:46;6.13;;;4.00;;
6376;SDS011;3221;48.858;10.128;2023-08-01T02:40:13;5.30;;;4.00;;
6376;SDS011;3221;48.858;10.128;2023-08-01T02:42:40;4.73;;;3.70;;
6376;SDS011;3221;48.858;10.128;2023-08-01T02:45:07;5.03;;;3.90;;
6376;SDS011;3221;48.858;10.128;2023-08-01T02:47:34;4.57;;;4.10;;
6376;SDS011;3221;48.858;10.128;2023-08-01T02:50:01;5.60;;;4.13;;
6376;SDS011;3221;48.858;10.128;2023-08-01T02:52:29;5.10;;;3.90;;
6376;SDS011;3221;48.858;10.128;2023-08-01T02:54:56;4.67;;;3.57;;
6376;SDS011;3221;48.858;10.128;2023-08-01T02:57:23;4.83;;;3.50;;
6376;SDS011;3221;48.858;10.128;2023-08-01T02:59:50;5.27;;;3.70;;
6376;SDS011;3221;48.858;10.128;2023-08-01T03:02:17;8.13;;;4.10;;
6376;SDS011;3221;48.858;10.128;2023-08-01T03:04:45;4.93;;;3.70;;
6376;SDS011;3221;48.858;10.128;2023-08-01T03:07:13;5.43;;;4.03;;
6376;SDS011;3221;48.858;10.128;2023-08-01T03:09:40;6.10;;;3.90;;
6376;SDS011;3221;48.858;10.128;2023-08-01T03:12:09;4.80;;;3.80;;
6376;SDS011;3221;48.858;10.128;2023-08-01T03:14:36;4.43;;;3.73;;
6376;SDS011;3221;48.858;10.128;2023-08-01T03:17:02;8.80;;;3.97;;
6376;SDS011;3221;48.858;10.128;2023-08-01T03:19:29;4.97;;;4.00;;
6376;SDS011;3221;48.858;10.128;2023-08-01T03:21:57;4.10;;;3.57;;
6376;SDS011;3221;48.858;10.128;2023-08-01T03:24:24;6.13;;;3.63;;
6376;SDS011;3221;48.858;10.128;2023-08-01T03:26:51;4.50;;;3.77;;
6376;SDS011;3221;48.858;10.128;2023-08-01T03:29:17;7.43;;;3.87;;
6376;SDS011;3221;48.858;10.128;2023-08-01T03:31:44;5.60;;;4.00;;
6376;SDS011;3221;48.858;10.128;2023-08-01T03:34:12;5.40;;;4.10;;
6376;SDS011;3221;48.858;10.128;2023-08-01T03:36:39;6.57;;;3.97;;
6376;SDS011;3221;48.858;10.128;2023-08-01T03:39:07;5.07;;;3.83;;
6376;SDS011;3221;48.858;10.128;2023-08-01T03:41:36;4.33;;;3.80;;
6376;SDS011;3221;48.858;10.128;2023-08-01T03:44:03;6.63;;;4.20;;
6376;SDS011;3221;48.858;10.128;2023-08-01T03:46:30;4.20;;;3.80;;
6376;SDS011;3221;48.858;10.128;2023-08-01T03:48:57;6.53;;;3.63;;
6376;SDS011;3221;48.858;10.128;2023-08-01T03:51:24;4.90;;;3.50;;
6376;SDS011;3221;48.858;10.128;2023-08-01T03:53:51;4.73;;;3.80;;
6376;SDS011;3221;48.858;10.128;2023-08-01T03:56:37;7.47;;;4.53;;
6376;SDS011;3221;48.858;10.128;2023-08-01T03:59:06;6.97;;;4.03;;
6376;SDS011;3221;48.858;10.128;2023-08-01T04:01:35;4.70;;;3.70;;
6376;SDS011;3221;48.858;10.128;2023-08-01T04:04:03;4.70;;;3.67;;
6376;SDS011;3221;48.858;10.128;2023-08-01T04:06:30;5.23;;;4.10;;
6376;SDS011;3221;48.858;10.128;2023-08-01T04:08:57;5.37;;;3.83;;
6376;SDS011;3221;48.858;10.128;2023-08-01T04:11:24;4.40;;;3.87;;
6376;SDS011;3221;48.858;10.128;2023-08-01T04:13:50;5.33;;;3.93;;
6376;SDS011;3221;48.858;10.128;2023-08-01T04:16:17;5.30;;;3.90;;
6376;SDS011;3221;48.858;10.128;2023-08-01T04:18:44;5.93;;;4.10;;
6376;SDS011;3221;48.858;10.128;2023-08-01T04:21:14;5.20;;;3.80;;
6376;SDS011;3221;48.858;10.128;2023-08-01T04:23:41;6.13;;;4.00;;
6376;SDS011;3221;48.858;10.128;2023-08-01T04:26:08;5.67;;;3.70;;
6376;SDS011;3221;48.858;10.128;2023-08-01T04:28:35;5.13;;;3.77;;
6376;SDS011;3221;48.858;10.128;2023-08-01T04:31:02;6.67;;;4.03;;
6376;SDS011;3221;48.858;10.128;2023-08-01T04:33:29;5.70;;;3.97;;
6376;SDS011;3221;48.858;10.128;2023-08-01T04:35:56;5.03;;;3.70;;
6376;SDS011;3221;48.858;10.128;2023-08-01T04:38:22;4.43;;;3.70;;
6376;SDS011;3221;48.858;10.128;2023-08-01T04:40:49;5.93;;;3.67;;
6376;SDS011;3221;48.858;10.128;2023-08-01T04:43:16;7.60;;;4.37;;
6376;SDS011;3221;48.858;10.128;2023-08-01T04:45:43;6.50;;;4.77;;
6376;SDS011;3221;48.858;10.128;2023-08-01T04:48:10;9.03;;;6.37;;
6376;SDS011;3221;48.858;10.128;2023-08-01T04:50:37;6.63;;;5.00;;
6376;SDS011;3221;48.858;10.128;2023-08-01T04:53:04;7.07;;;4.40;;
6376;SDS011;3221;48.858;10.128;2023-08-01T04:55:32;5.50;;;4.73;;
6376;SDS011;3221;48.858;10.128;2023-08-01T04:57:59;4.50;;;3.93;;
6376;SDS011;3221;48.858;10.128;2023-08-01T05:00:26;5.87;;;3.80;;
6376;SDS011;3221;48.858;10.128;2023-08-01T05:02:53;5.50;;;3.70;;
6376;SDS011;3221;48.858;10.128;2023-08-01T05:05:19;7.30;;;4.73;;
6376;SDS011;3221;48.858;10.128;2023-08-01T05:07:46;8.57;;;4.57;;
6376;SDS011;3221;48.858;10.128;2023-08-01T05:10:13;7.37;;;3.97;;
6376;SDS011;3221;48.858;10.128;2023-08-01T05:12:43;5.00;;;3.80;;
6376;SDS011;3221;48.858;10.128;2023-08-01T05:15:09;4.33;;;3.60;;
6376;SDS011;3221;48.858;10.128;2023-08-01T05:17:37;4.43;;;4.00;;
6376;SDS011;3221;48.858;10.128;2023-08-01T05:20:04;6.13;;;4.40;;
6376;SDS011;3221;48.858;10.128;2023-08-01T05:22:31;6.87;;;3.90;;
6376;SDS011;3221;48.858;10.128;2023-08-01T05:24:58;7.57;;;3.70;;
6376;SDS011;3221;48.858;10.128;2023-08-01T05:27:25;6.03;;;4.10;;
6376;SDS011;3221;48.858;10.128;2023-08-01T05:29:52;5.90;;;3.87;;
6376;SDS011;3221;48.858;10.128;2023-08-01T05:32:19;8.10;;;4.33;;
6376;SDS011;3221;48.858;10.128;2023-08-01T05:34:46;7.17;;;4.10;;
6376;SDS011;3221;48.858;10.128;2023-08-01T05:37:13;7.27;;;3.80;;
6376;SDS011;3221;48.858;10.128;2023-08-01T05:39:40;4.87;;;3.67;;
6376;SDS011;3221;48.858;10.128;2023-08-01T05:42:06;6.07;;;4.10;;
6376;SDS011;3221;48.858;10.128;2023-08-01T05:44:35;5.03;;;3.50;;
6376;SDS011;3221;48.858;10.128;2023-08-01T05:47:02;5.00;;;3.73;;
6376;SDS011;3221;48.858;10.128;2023-08-01T05:49:29;6.33;;;3.90;;
6376;SDS011;3221;48.858;10.128;2023-08-01T05:51:56;5.57;;;3.83;;
6376;SDS011;3221;48.858;10.128;2023-08-01T05:54:23;4.53;;;3.60;;
6376;SDS011;3221;48.858;10.128;2023-08-01T05:56:50;6.90;;;3.80;;
6376;SDS011;3221;48.858;10.128;2023-08-01T05:59:17;6.90;;;3.63;;
6376;SDS011;3221;48.858;10.128;2023-08-01T06:01:44;5.50;;;3.67;;
6376;SDS011;3221;48.858;10.128;2023-08-01T06:04:11;3.97;;;3.40;;
6376;SDS011;3221;48.858;10.128;2023-08-01T06:06:38;5.20;;;3.47;;
6376;SDS011;3221;48.858;10.128;2023-08-01T06:09:05;7.00;;;4.10;;
6376;SDS011;3221;48.858;10.128;2023-08-01T06:11:32;6.53;;;4.30;;
6376;SDS011;3221;48.858;10.128;2023-08-01T06:14:00;5.90;;;4.20;;
6376;SDS011;3221;48.858;10.128;2023-08-01T06:16:27;5.10;;;4.30;;
6376;SDS011;3221;48.858;10.128;2023-08-01T06:18:53;8.93;;;4.80;;
6376;SDS011;3221;48.858;10.128;2023-08-01T06:21:20;6.83;;;4.60;;
6376;SDS011;3221;48.858;10.128;2023-08-01T06:23:47;6.47;;;4.37;;
6376;SDS011;3221;48.858;10.128;2023-08-01T06:26:14;7.07;;;4.40;;
6376;SDS011;3221;48.858;10.128;2023-08-01T06:28:44;5.70;;;3.90;;
6376;SDS011;3221;48.858;10.128;2023-08-01T06:31:10;5.53;;;4.17;;
6376;SDS011;3221;48.858;10.128;2023-08-01T06:33:37;6.97;;;4.13;;
6376;SDS011;3221;48.858;10.128;2023-08-01T06:36:05;5.27;;;4.10;;
6376;SDS011;3221;48.858;10.128;2023-08-01T06:38:32;5.27;;;4.10;;
6376;SDS011;3221;48.858;10.128;2023-08-01T06:40:59;4.90;;;3.87;;
6376;SDS011;3221;48.858;10.128;2023-08-01T06:43:26;5.30;;;3.80;;
6376;SDS011;3221;48.858;10.128;2023-08-01T06:45:53;5.77;;;4.03;;
6376;SDS011;3221;48.858;10.128;2023-08-01T06:48:19;6.40;;;4.27;;
6376;SDS011;3221;48.858;10.128;2023-08-01T06:50:46;6.67;;;4.40;;
6376;SDS011;3221;48.858;10.128;2023-08-01T06:53:13;6.57;;;4.40;;
6376;SDS011;3221;48.858;10.128;2023-08-01T06:55:40;6.90;;;3.93;;
6376;SDS011;3221;48.858;10.128;2023-08-01T06:58:07;6.87;;;4.67;;
6376;SDS011;3221;48.858;10.128;2023-08-01T07:00:34;5.17;;;4.10;;
6376;SDS011;3221;48.858;10.128;2023-08-01T07:03:01;5.33;;;4.23;;
6376;SDS011;3221;48.858;10.128;2023-08-01T07:05:28;5.80;;;4.10;;
6376;SDS011;3221;48.858;10.128;2023-08-01T07:07:55;5.70;;;4.30;;
6376;SDS011;3221;48.858;10.128;2023-08-01T07:10:24;5.43;;;4.10;;
6376;SDS011;3221;48.858;10.128;2023-08-01T07:12:51;4.33;;;3.80;;
6376;SDS011;3221;48.858;10.128;2023-08-01T07:15:18;6.40;;;3.97;;
6376;SDS011;3221;48.858;10.128;2023-08-01T07:17:44;5.30;;;4.20;;
6376;SDS011;3221;48.858;10.128;2023-08-01T07:20:11;7.10;;;3.90;;
6376;SDS011;3221;48.858;10.128;2023-08-01T07:22:39;6.60;;;4.23;;
6376;SDS011;3221;48.858;10.128;2023-08-01T07:25:07;6.30;;;4.43;;
6376;SDS011;3221;48.858;10.128;2023-08-01T07:27:36;5.63;;;4.30;;
6376;SDS011;3221;48.858;10.128;2023-08-01T07:30:04;4.63;;;4.00;;
6376;SDS011;3221;48.858;10.128;2023-08-01T07:32:31;6.13;;;4.30;;
6376;SDS011;3221;48.858;10.128;2023-08-01T07:35:00;5.50;;;4.20;;
6376;SDS011;3221;48.858;10.128;2023-08-01T07:37:27;5.53;;;4.10;;
6376;SDS011;3221;48.858;10.128;2023-08-01T07:39:55;6.47;;;4.50;;
6376;SDS011;3221;48.858;10.128;2023-08-01T07:42:23;5.23;;;4.03;;
6376;SDS011;3221;48.858;10.128;2023-08-01T07:44:50;6.53;;;4.33;;
6376;SDS011;3221;48.858;10.128;2023-08-01T07:47:17;7.27;;;4.50;;
6376;SDS011;3221;48.858;10.128;2023-08-01T07:49:44;6.80;;;4.10;;
6376;SDS011;3221;48.858;10.128;2023-08-01T07:52:11;4.40;;;4.00;;
6376;SDS011;3221;48.858;10.128;2023-08-01T07:54:38;5.70;;;4.40;;
6376;SDS011;3221;48.858;10.128;2023-08-01T07:57:05;6.03;;;4.10;;
6376;SDS011;3221;48.858;10.128;2023-08-01T07:59:32;6.10;;;4.30;;
6376;SDS011;3221;48.858;10.128;2023-08-01T08:01:59;4.53;;;3.77;;
6376;SDS011;3221;48.858;10.128;2023-08-01T08:04:26;5.40;;;4.30;;
6376;SDS011;3221;48.858;10.128;2023-08-01T08:06:53;6.43;;;4.70;;
6376;SDS011;3221;48.858;10.128;2023-08-01T08:09:21;5.63;;;4.30;;
6376;SDS011;3221;48.858;10.128;2023-08-01T08:11:51;5.03;;;4.53;;
6376;SDS011;3221;48.858;10.128;2023-08-01T08:14:18;5.77;;;4.03;;
6376;SDS011;3221;48.858;10.128;2023-08-01T08:16:47;5.47;;;4.30;;
6376;SDS011;3221;48.858;10.128;2023-08-01T08:19:15;6.27;;;4.60;;
6376;SDS011;3221;48.858;10.128;2023-08-01T08:21:42;4.67;;;4.17;;
6376;SDS011;3221;48.858;10.128;2023-08-01T08:24:09;6.07;;;4.53;;
6376;SDS011;3221;48.858;10.128;2023-08-01T08:26:36;7.50;;;4.40;;
6376;SDS011;3221;48.858;10.128;2023-08-01T08:29:06;6.40;;;4.40;;
6376;SDS011;3221;48.858;10.128;2023-08-01T08:31:33;5.63;;;4.70;;
6376;SDS011;3221;48.858;10.128;2023-08-01T08:34:00;7.23;;;4.27;;
6376;SDS011;3221;48.858;10.128;2023-08-01T08:36:27;6.03;;;4.87;;
6376;SDS011;3221;48.858;10.128;2023-08-01T08:38:54;5.97;;;4.43;;
6376;SDS011;3221;48.858;10.128;2023-08-01T08:41:22;5.83;;;4.70;;
6376;SDS011;3221;48.858;10.128;2023-08-01T08:43:52;6.90;;;5.07;;
6376;SDS011;3221;48.858;10.128;2023-08-01T08:46:24;6.73;;;5.00;;
6376;SDS011;3221;48.858;10.128;2023-08-01T08:48:57;6.40;;;4.70;;
6376;SDS011;3221;48.858;10.128;2023-08-01T08:51:26;5.93;;;4.73;;
6376;SDS011;3221;48.858;10.128;2023-08-01T08:53:56;6.17;;;4.70;;
6376;SDS011;3221;48.858;10.128;2023-08-01T08:56:26;6.20;;;4.50;;
6376;SDS011;3221;48.858;10.128;2023-08-01T08:58:54;6.83;;;4.90;;
6376;SDS011;3221;48.858;10.128;2023-08-01T09:01:22;5.93;;;4.53;;
6376;SDS011;3221;48.858;10.128;2023-08-01T09:03:49;5.33;;;4.30;;
6376;SDS011;3221;48.858;10.128;2023-08-01T09:06:17;6.43;;;4.53;;
6376;SDS011;3221;48.858;10.128;2023-08-01T09:08:49;6.47;;;4.93;;
6376;SDS011;3221;48.858;10.128;2023-08-01T09:11:20;7.73;;;4.83;;
6376;SDS011;3221;48.858;10.128;2023-08-01T09:13:47;5.47;;;4.60;;
6376;SDS011;3221;48.858;10.128;2023-08-01T09:16:16;7.17;;;4.70;;
6376;SDS011;3221;48.858;10.128;2023-08-01T09:18:49;8.00;;;5.00;;
6376;SDS011;3221;48.858;10.128;2023-08-01T09:21:18;7.13;;;4.50;;
6376;SDS011;3221;48.858;10.128;2023-08-01T09:23:46;5.60;;;4.43;;
6376;SDS011;3221;48.858;10.128;2023-08-01T09:26:13;6.97;;;4.63;;
6376;SDS011;3221;48.858;10.128;2023-08-01T09:28:41;5.67;;;4.10;;
6376;SDS011;3221;48.858;10.128;2023-08-01T09:31:09;6.67;;;4.83;;
6376;SDS011;3221;48.858;10.128;2023-08-01T09:33:37;7.33;;;5.03;;
6376;SDS011;3221;48.858;10.128;2023-08-01T09:36:06;6.17;;;4.60;;
6376;SDS011;3221;48.858;10.128;2023-08-01T09:38:34;5.90;;;4.20;;
6376;SDS011;3221;48.858;10.128;2023-08-01T09:41:02;6.10;;;4.17;;
6376;SDS011;3221;48.858;10.128;2023-08-01T09:43:34;6.23;;;4.50;;
6376;SDS011;3221;48.858;10.128;2023-08-01T09:46:06;4.97;;;3.93;;
6376;SDS011;3221;48.858;10.128;2023-08-01T09:48:33;5.73;;;3.97;;
6376;SDS011;3221;48.858;10.128;2023-08-01T09:51:07;4.37;;;3.20;;
6376;SDS011;3221;48.858;10.128;2023-08-01T09:53:54;7.33;;;4.20;;
6376;SDS011;3221;48.858;10.128;2023-08-01T09:56:26;4.40;;;3.60;;
6376;SDS011;3221;48.858;10.128;2023-08-01T09:58:54;4.43;;;3.63;;
6376;SDS011;3221;48.858;10.128;2023-08-01T10:01:23;5.60;;;3.53;;
6376;SDS011;3221;48.858;10.128;2023-08-01T10:03:51;4.07;;;3.47;;
6376;SDS011;3221;48.858;10.128;2023-08-01T10:08:51;5.37;;;4.00;;
6376;SDS011;3221;48.858;10.128;2023-08-01T10:11:19;4.77;;;3.73;;
6376;SDS011;3221;48.858;10.128;2023-08-01T10:13:47;6.80;;;4.57;;
6376;SDS011;3221;48.858;10.128;2023-08-01T10:16:15;5.60;;;3.87;;
6376;SDS011;3221;48.858;10.128;2023-08-01T10:18:42;4.30;;;3.20;;
6376;SDS011;3221;48.858;10.128;2023-08-01T10:21:11;4.20;;;3.13;;
6376;SDS011;3221;48.858;10.128;2023-08-01T10:23:40;3.67;;;3.20;;
6376;SDS011;3221;48.858;10.128;2023-08-01T10:26:08;3.87;;;3.20;;
6376;SDS011;3221;48.858;10.128;2023-08-01T10:28:37;3.70;;;3.30;;
6376;SDS011;3221;48.858;10.128;2023-08-01T10:33:43;4.93;;;3.20;;
6376;SDS011;3221;48.858;10.128;2023-08-01T10:36:21;3.80;;;3.10;;
6376;SDS011;3221;48.858;10.128;2023-08-01T10:38:53;5.20;;;2.47;;
6376;SDS011;3221;48.858;10.128;2023-08-01T10:41:34;3.23;;;2.70;;
6376;SDS011;3221;48.858;10.128;2023-08-01T10:44:09;3.63;;;2.73;;
6376;SDS011;3221;48.858;10.128;2023-08-01T10:49:19;3.20;;;2.27;;
6376;SDS011;3221;48.858;10.128;2023-08-01T10:51:50;4.20;;;2.57;;
6376;SDS011;3221;48.858;10.128;2023-08-01T10:54:18;3.13;;;2.50;;
6376;SDS011;3221;48.858;10.128;2023-08-01T10:56:50;2.70;;;2.13;;
6376;SDS011;3221;48.858;10.128;2023-08-01T10:59:18;2.43;;;2.20;;
6376;SDS011;3221;48.858;10.128;2023-08-01T11:01:49;2.83;;;2.07;;
6376;SDS011;3221;48.858;10.128;2023-08-01T11:04:22;2.77;;;2.40;;
6376;SDS011;3221;48.858;10.128;2023-08-01T11:06:53;3.30;;;2.10;;
6376;SDS011;3221;48.858;10.128;2023-08-01T11:09:24;2.90;;;2.17;;
6376;SDS011;3221;48.858;10.128;2023-08-01T11:11:56;4.47;;;2.20;;
6376;SDS011;3221;48.858;10.128;2023-08-01T11:14:25;3.03;;;1.70;;
6376;SDS011;3221;48.858;10.128;2023-08-01T11:16:53;3.00;;;2.33;;
6376;SDS011;3221;48.858;10.128;2023-08-01T11:19:28;2.40;;;2.17;;
6376;SDS011;3221;48.858;10.128;2023-08-01T11:21:56;2.93;;;1.90;;
6376;SDS011;3221;48.858;10.128;2023-08-01T11:24:24;2.80;;;1.90;;
6376;SDS011;3221;48.858;10.128;2023-08-01T11:26:53;3.50;;;2.27;;
6376;SDS011;3221;48.858;10.128;2023-08-01T11:29:20;2.63;;;2.23;;
6376;SDS011;3221;48.858;10.128;2023-08-01T11:31:54;3.40;;;2.33;;
6376;SDS011;3221;48.858;10.128;2023-08-01T11:34:23;2.27;;;2.03;;
6376;SDS011;3221;48.858;10.128;2023-08-01T11:36:50;2.10;;;1.70;;
6376;SDS011;3221;48.858;10.128;2023-08-01T11:39:18;3.83;;;1.90;;
6376;SDS011;3221;48.858;10.128;2023-08-01T11:41:45;2.00;;;1.73;;
6376;SDS011;3221;48.858;10.128;2023-08-01T11:44:12;1.80;;;1.37;;
6376;SDS011;3221;48.858;10.128;2023-08-01T11:46:39;2.20;;;1.40;;
6376;SDS011;3221;48.858;10.128;2023-08-01T11:49:08;2.00;;;1.40;;
6376;SDS011;3221;48.858;10.128;2023-08-01T11:51:38;3.00;;;1.80;;
6376;SDS011;3221;48.858;10.128;2023-08-01T11:54:07;1.83;;;1.30;;
6376;SDS011;3221;48.858;10.128;2023-08-01T11:56:35;1.93;;;1.50;;
6376;SDS011;3221;48.858;10.128;2023-08-01T11:59:13;2.60;;;1.63;;
6376;SDS011;3221;48.858;10.128;2023-08-01T12:01:42;2.57;;;1.53;;
6376;SDS011;3221;48.858;10.128;2023-08-01T12:04:11;2.03;;;1.40;;
6376;SDS011;3221;48.858;10.128;2023-08-01T12:06:38;2.80;;;1.70;;
6376;SDS011;3221;48.858;10.128;2023-08-01T12:09:09;1.67;;;1.50;;
6376;SDS011;3221;48.858;10.128;2023-08-01T12:11:37;1.90;;;1.40;;
6376;SDS011;3221;48.858;10.128;2023-08-01T12:14:09;2.20;;;1.60;;
6376;SDS011;3221;48.858;10.128;2023-08-01T12:16:38;2.00;;;1.60;;
6376;SDS011;3221;48.858;10.128;2023-08-01T12:19:11;3.13;;;1.60;;
6376;SDS011;3221;48.858;10.128;2023-08-01T12:21:43;2.83;;;1.90;;
6376;SDS011;3221;48.858;10.128;2023-08-01T12:24:10;7.80;;;1.80;;
6376;SDS011;3221;48.858;10.128;2023-08-01T12:26:37;4.03;;;1.70;;
6376;SDS011;3221;48.858;10.128;2023-08-01T12:29:05;2.00;;;1.33;;
6376;SDS011;3221;48.858;10.128;2023-08-01T12:31:32;2.23;;;1.60;;
6376;SDS011;3221;48.858;10.128;2023-08-01T12:33:59;1.60;;;1.50;;
6376;SDS011;3221;48.858;10.128;2023-08-01T12:36:26;1.70;;;1.30;;
6376;SDS011;3221;48.858;10.128;2023-08-01T12:38:53;1.33;;;1.23;;
6376;SDS011;3221;48.858;10.128;2023-08-01T12:41:20;1.33;;;1.23;;
6376;SDS011;3221;48.858;10.128;2023-08-01T12:43:47;1.60;;;1.27;;
6376;SDS011;3221;48.858;10.128;2023-08-01T12:46:14;2.90;;;1.47;;
6376;SDS011;3221;48.858;10.128;2023-08-01T12:48:41;2.57;;;1.50;;
6376;SDS011;3221;48.858;10.128;2023-08-01T12:51:08;1.57;;;1.47;;
6376;SDS011;3221;48.858;10.128;2023-08-01T12:53:35;2.07;;;1.40;;
6376;SDS011;3221;48.858;10.128;2023-08-01T12:56:06;2.80;;;1.53;;
6376;SDS011;3221;48.858;10.128;2023-08-01T12:58:33;1.40;;;1.30;;
6376;SDS011;3221;48.858;10.128;2023-08-01T13:01:01;2.57;;;1.43;;
6376;SDS011;3221;48.858;10.128;2023-08-01T13:03:30;1.50;;;1.37;;
6376;SDS011;3221;48.858;10.128;2023-08-01T13:05:57;2.40;;;1.50;;
6376;SDS011;3221;48.858;10.128;2023-08-01T13:08:25;1.53;;;1.43;;
6376;SDS011;3221;48.858;10.128;2023-08-01T13:10:52;2.60;;;1.60;;
6376;SDS011;3221;48.858;10.128;2023-08-01T13:13:18;2.00;;;1.43;;
6376;SDS011;3221;48.858;10.128;2023-08-01T13:15:45;5.93;;;1.60;;
6376;SDS011;3221;48.858;10.128;2023-08-01T13:18:13;3.63;;;2.03;;
6376;SDS011;3221;48.858;10.128;2023-08-01T13:20:40;3.93;;;2.80;;
6376;SDS011;3221;48.858;10.128;2023-08-01T13:23:07;3.77;;;2.77;;
6376;SDS011;3221;48.858;10.128;2023-08-01T13:25:34;3.33;;;2.10;;
6376;SDS011;3221;48.858;10.128;2023-08-01T13:28:02;2.17;;;1.97;;
6376;SDS011;3221;48.858;10.128;2023-08-01T13:30:30;3.33;;;2.47;;
6376;SDS011;3221;48.858;10.128;2023-08-01T13:32:56;3.13;;;2.20;;
6376;SDS011;3221;48.858;10.128;2023-08-01T13:35:23;3.37;;;2.10;;
6376;SDS011;3221;48.858;10.128;2023-08-01T13:37:50;1.73;;;1.63;;
6376;SDS011;3221;48.858;10.128;2023-08-01T13:40:17;1.57;;;1.47;;
6376;SDS011;3221;48.858;10.128;2023-08-01T13:42:44;1.90;;;1.80;;
6376;SDS011;3221;48.858;10.128;2023-08-01T13:45:11;3.43;;;1.80;;
6376;SDS011;3221;48.858;10.128;2023-08-01T13:47:38;3.43;;;2.00;;
6376;SDS011;3221;48.858;10.128;2023-08-01T13:50:05;2.17;;;1.93;;
6376;SDS011;3221;48.858;10.128;2023-08-01T13:52:32;3.87;;;2.03;;
6376;SDS011;3221;48.858;10.128;2023-08-01T13:54:59;4.10;;;3.13;;
6376;SDS011;3221;48.858;10.128;2023-08-01T13:57:26;3.07;;;2.30;;
6376;SDS011;3221;48.858;10.128;2023-08-01T13:59:52;3.00;;;2.03;;
6376;SDS011;3221;48.858;10.128;2023-08-01T14:02:36;1.97;;;1.60;;
6376;SDS011;3221;48.858;10.128;2023-08-01T14:05:04;1.97;;;1.63;;
6376;SDS011;3221;48.858;10.128;2023-08-01T14:07:31;2.47;;;1.90;;
6376;SDS011;3221;48.858;10.128;2023-08-01T14:10:00;2.10;;;1.90;;
6376;SDS011;3221;48.858;10.128;2023-08-01T14:12:27;1.90;;;1.70;;
6376;SDS011;3221;48.858;10.128;2023-08-01T14:14:54;1.70;;;1.60;;
6376;SDS011;3221;48.858;10.128;2023-08-01T14:17:21;2.47;;;1.87;;
6376;SDS011;3221;48.858;10.128;2023-08-01T14:19:48;3.23;;;1.50;;
6376;SDS011;3221;48.858;10.128;2023-08-01T14:22:14;1.80;;;1.57;;
6376;SDS011;3221;48.858;10.128;2023-08-01T14:24:41;1.63;;;1.47;;
6376;SDS011;3221;48.858;10.128;2023-08-01T14:27:09;1.83;;;1.50;;
6376;SDS011;3221;48.858;10.128;2023-08-01T14:29:36;2.77;;;1.90;;
6376;SDS011;3221;48.858;10.128;2023-08-01T14:32:04;2.10;;;1.90;;
6376;SDS011;3221;48.858;10.128;2023-08-01T14:34:31;1.50;;;1.40;;
6376;SDS011;3221;48.858;10.128;2023-08-01T14:36:58;1.83;;;1.50;;
6376;SDS011;3221;48.858;10.128;2023-08-01T14:39:25;2.07;;;1.70;;
6376;SDS011;3221;48.858;10.128;2023-08-01T14:41:52;2.57;;;1.70;;
6376;SDS011;3221;48.858;10.128;2023-08-01T14:44:30;1.60;;;1.50;;
6376;SDS011;3221;48.858;10.128;2023-08-01T14:46:57;2.40;;;1.70;;
6376;SDS011;3221;48.858;10.128;2023-08-01T14:49:24;2.17;;;1.83;;
6376;SDS011;3221;48.858;10.128;2023-08-01T14:51:54;2.27;;;1.87;;
6376;SDS011;3221;48.858;10.128;2023-08-01T14:54:21;2.20;;;1.60;;
6376;SDS011;3221;48.858;10.128;2023-08-01T14:57:05;3.57;;;1.93;;
6376;SDS011;3221;48.858;10.128;2023-08-01T14:59:32;2.23;;;1.70;;
6376;SDS011;3221;48.858;10.128;2023-08-01T15:01:59;3.50;;;1.80;;
6376;SDS011;3221;48.858;10.128;2023-08-01T15:04:26;2.10;;;1.77;;
6376;SDS011;3221;48.858;10.128;2023-08-01T15:06:53;1.90;;;1.77;;
6376;SDS011;3221;48.858;10.128;2023-08-01T15:09:21;2.20;;;1.87;;
6376;SDS011;3221;48.858;10.128;2023-08-01T15:11:48;2.47;;;1.83;;